sensor_id;sensor_type;location;lat;lon;timestamp;pressure;altitude;pressure_sealevel;temperature;humidity
80149;BME280;69473;42.426;26.644;2023-12-29T00:02:20;99657.38;;;4.36;75.32
80149;BME280;69473;42.426;26.644;2023-12-29T00:04:46;99645.56;;;4.14;76.33
80149;BME280;69473;42.426;26.644;2023-12-29T00:07:12;99651.53;;;4.15;76.75
80149;BME280;69473;42.426;26.644;2023-12-29T00:09:38;99653.50;;;4.22;76.60
80149;BME280;69473;42.426;26.644;2023-12-29T00:12:07;99647.38;;;4.19;76.14
80149;BME280;69473;42.426;26.644;2023-12-29T00:14:33;99651.75;;;4.21;76.06
80149;BME280;69473;42.426;26.644;2023-12-29T00:16:59;99646.53;;;4.18;76.10
80149;BME280;69473;42.426;26.644;2023-12-29T00:19:25;99648.34;;;4.22;77.01
80149;BME280;69473;42.426;26.644;2023-12-29T00:21:51;99646.53;;;4.18;76.75
80149;BME280;69473;42.426;26.644;2023-12-29T00:24:16;99644.44;;;4.08;76.64
80149;BME280;69473;42.426;26.644;2023-12-29T00:26:42;99647.13;;;4.11;76.67
80149;BME280;69473;42.426;26.644;2023-12-29T00:29:08;99649.88;;;4.17;77.32
80149;BME280;69473;42.426;26.644;2023-12-29T00:31:33;99639.53;;;4.14;77.04
80149;BME280;69473;42.426;26.644;2023-12-29T00:33:59;99648.25;;;4.19;77.96
80149;BME280;69473;42.426;26.644;2023-12-29T00:36:25;99642.81;;;4.10;77.20
80149;BME280;69473;42.426;26.644;2023-12-29T00:38:50;99638.34;;;4.04;76.93
80149;BME280;69473;42.426;26.644;2023-12-29T00:41:16;99644.03;;;3.96;77.61
80149;BME280;69473;42.426;26.644;2023-12-29T00:43:42;99645.13;;;4.02;78.21
80149;BME280;69473;42.426;26.644;2023-12-29T00:46:07;99654.13;;;3.89;77.78
80149;BME280;69473;42.426;26.644;2023-12-29T00:48:34;99654.16;;;3.91;77.67
80149;BME280;69473;42.426;26.644;2023-12-29T00:51:03;99654.41;;;3.99;77.91
80149;BME280;69473;42.426;26.644;2023-12-29T00:53:29;99641.44;;;3.94;78.63
80149;BME280;69473;42.426;26.644;2023-12-29T00:55:57;99660.41;;;3.99;78.70
80149;BME280;69473;42.426;26.644;2023-12-29T00:58:23;99647.53;;;3.98;78.99
80149;BME280;69473;42.426;26.644;2023-12-29T01:00:48;99650.72;;;3.90;77.42
80149;BME280;69473;42.426;26.644;2023-12-29T01:03:14;99654.28;;;3.96;78.75
80149;BME280;69473;42.426;26.644;2023-12-29T01:05:39;99651.69;;;3.94;78.18
80149;BME280;69473;42.426;26.644;2023-12-29T01:08:05;99654.00;;;3.86;78.06
80149;BME280;69473;42.426;26.644;2023-12-29T01:10:30;99652.25;;;3.85;78.19
80149;BME280;69473;42.426;26.644;2023-12-29T01:12:56;99651.91;;;3.76;78.63
80149;BME280;69473;42.426;26.644;2023-12-29T01:15:22;99637.06;;;3.66;79.21
80149;BME280;69473;42.426;26.644;2023-12-29T01:17:47;99636.66;;;3.79;79.71
80149;BME280;69473;42.426;26.644;2023-12-29T01:20:13;99645.16;;;3.78;78.53
80149;BME280;69473;42.426;26.644;2023-12-29T01:22:38;99646.69;;;3.73;78.63
80149;BME280;69473;42.426;26.644;2023-12-29T01:25:04;99653.56;;;3.74;78.25
80149;BME280;69473;42.426;26.644;2023-12-29T01:27:31;99643.22;;;3.71;79.41
80149;BME280;69473;42.426;26.644;2023-12-29T01:29:56;99640.03;;;3.78;79.28
80149;BME280;69473;42.426;26.644;2023-12-29T01:32:22;99636.84;;;3.85;79.60
80149;BME280;69473;42.426;26.644;2023-12-29T01:34:48;99631.84;;;3.88;79.62
80149;BME280;69473;42.426;26.644;2023-12-29T01:37:13;99619.84;;;3.87;79.53
80149;BME280;69473;42.426;26.644;2023-12-29T01:39:39;99620.72;;;3.88;80.28
80149;BME280;69473;42.426;26.644;2023-12-29T01:42:06;99615.16;;;3.76;80.40
80149;BME280;69473;42.426;26.644;2023-12-29T01:44:32;99621.16;;;3.76;80.26
80149;BME280;69473;42.426;26.644;2023-12-29T01:47:01;99604.47;;;3.87;80.60
80149;BME280;69473;42.426;26.644;2023-12-29T01:49:29;99602.84;;;3.89;81.52
80149;BME280;69473;42.426;26.644;2023-12-29T01:51:57;99596.03;;;3.91;81.34
80149;BME280;69473;42.426;26.644;2023-12-29T01:54:26;99594.66;;;4.01;81.06
80149;BME280;69473;42.426;26.644;2023-12-29T01:56:54;99589.69;;;4.06;80.92
80149;BME280;69473;42.426;26.644;2023-12-29T01:59:24;99593.06;;;4.05;81.26
80149;BME280;69473;42.426;26.644;2023-12-29T02:01:50;99594.72;;;4.03;81.26
80149;BME280;69473;42.426;26.644;2023-12-29T02:04:17;99584.16;;;3.93;80.30
80149;BME280;69473;42.426;26.644;2023-12-29T02:06:44;99594.72;;;4.03;80.82
80149;BME280;69473;42.426;26.644;2023-12-29T02:09:09;99597.88;;;3.96;81.39
80149;BME280;69473;42.426;26.644;2023-12-29T02:11:38;99592.59;;;3.89;80.86
80149;BME280;69473;42.426;26.644;2023-12-29T02:14:04;99595.94;;;3.88;82.37
80149;BME280;69473;42.426;26.644;2023-12-29T02:19:41;99594.50;;;3.97;83.83
80149;BME280;69473;42.426;26.644;2023-12-29T02:22:10;99589.59;;;4.03;83.42
80149;BME280;69473;42.426;26.644;2023-12-29T02:24:37;99595.31;;;3.96;82.68
80149;BME280;69473;42.426;26.644;2023-12-29T02:29:40;99585.59;;;3.85;83.06
80149;BME280;69473;42.426;26.644;2023-12-29T02:32:13;99582.13;;;3.83;82.40
80149;BME280;69473;42.426;26.644;2023-12-29T02:34:41;99576.16;;;3.84;82.51
80149;BME280;69473;42.426;26.644;2023-12-29T02:37:09;99578.06;;;3.90;83.33
80149;BME280;69473;42.426;26.644;2023-12-29T02:39:35;99572.25;;;3.96;83.16
80149;BME280;69473;42.426;26.644;2023-12-29T02:42:01;99583.09;;;3.87;83.20
80149;BME280;69473;42.426;26.644;2023-12-29T02:44:26;99583.84;;;3.84;82.98
80149;BME280;69473;42.426;26.644;2023-12-29T02:46:52;99575.13;;;3.79;82.93
80149;BME280;69473;42.426;26.644;2023-12-29T02:49:18;99570.09;;;3.82;83.53
80149;BME280;69473;42.426;26.644;2023-12-29T02:51:43;99565.75;;;3.80;83.13
80149;BME280;69473;42.426;26.644;2023-12-29T02:54:11;99569.78;;;3.73;83.73
80149;BME280;69473;42.426;26.644;2023-12-29T02:56:36;99566.22;;;3.68;82.91
80149;BME280;69473;42.426;26.644;2023-12-29T02:59:02;99549.28;;;3.73;83.30
80149;BME280;69473;42.426;26.644;2023-12-29T03:01:28;99552.63;;;3.70;83.58
80149;BME280;69473;42.426;26.644;2023-12-29T03:03:54;99552.56;;;3.69;83.92
80149;BME280;69473;42.426;26.644;2023-12-29T03:06:20;99555.75;;;3.62;83.61
80149;BME280;69473;42.426;26.644;2023-12-29T03:08:45;99554.00;;;3.61;83.38
80149;BME280;69473;42.426;26.644;2023-12-29T03:11:11;99558.25;;;3.60;84.03
80149;BME280;69473;42.426;26.644;2023-12-29T03:13:36;99552.38;;;3.63;82.89
80149;BME280;69473;42.426;26.644;2023-12-29T03:16:02;99549.72;;;3.60;82.50
80149;BME280;69473;42.426;26.644;2023-12-29T03:18:28;99548.66;;;3.55;82.45
80149;BME280;69473;42.426;26.644;2023-12-29T03:20:53;99555.44;;;3.53;81.50
80149;BME280;69473;42.426;26.644;2023-12-29T03:23:19;99558.81;;;3.52;81.97
80149;BME280;69473;42.426;26.644;2023-12-29T03:25:44;99555.25;;;3.46;81.63
80149;BME280;69473;42.426;26.644;2023-12-29T03:28:10;99555.34;;;3.50;81.70
80149;BME280;69473;42.426;26.644;2023-12-29T03:30:35;99542.25;;;3.42;82.09
80149;BME280;69473;42.426;26.644;2023-12-29T03:33:02;99549.25;;;3.46;81.29
80149;BME280;69473;42.426;26.644;2023-12-29T03:35:28;99546.72;;;3.47;80.92
80149;BME280;69473;42.426;26.644;2023-12-29T03:37:53;99542.91;;;3.36;80.80
80149;BME280;69473;42.426;26.644;2023-12-29T03:40:19;99546.41;;;3.38;81.11
80149;BME280;69473;42.426;26.644;2023-12-29T03:42:44;99544.69;;;3.37;81.23
80149;BME280;69473;42.426;26.644;2023-12-29T03:45:10;99543.91;;;3.40;80.64
80149;BME280;69473;42.426;26.644;2023-12-29T03:47:35;99546.16;;;3.31;80.67
80149;BME280;69473;42.426;26.644;2023-12-29T03:50:01;99552.53;;;3.18;81.70
80149;BME280;69473;42.426;26.644;2023-12-29T03:52:27;99547.41;;;3.18;81.46
80149;BME280;69473;42.426;26.644;2023-12-29T03:54:52;99549.38;;;3.25;80.85
80149;BME280;69473;42.426;26.644;2023-12-29T03:57:18;99545.75;;;3.20;81.16
80149;BME280;69473;42.426;26.644;2023-12-29T03:59:43;99551.75;;;3.20;80.26
80149;BME280;69473;42.426;26.644;2023-12-29T04:02:09;99545.53;;;3.14;80.43
80149;BME280;69473;42.426;26.644;2023-12-29T04:04:38;99548.28;;;3.18;81.06
80149;BME280;69473;42.426;26.644;2023-12-29T04:07:04;99549.16;;;3.19;80.84
80149;BME280;69473;42.426;26.644;2023-12-29T04:09:30;99545.25;;;3.30;80.88
80149;BME280;69473;42.426;26.644;2023-12-29T04:11:56;99540.31;;;3.35;80.29
80149;BME280;69473;42.426;26.644;2023-12-29T04:14:21;99542.81;;;3.33;79.77
80149;BME280;69473;42.426;26.644;2023-12-29T04:16:47;99549.97;;;3.18;79.62
80149;BME280;69473;42.426;26.644;2023-12-29T04:19:12;99546.69;;;3.22;79.85
80149;BME280;69473;42.426;26.644;2023-12-29T04:21:38;99538.91;;;3.19;79.54
80149;BME280;69473;42.426;26.644;2023-12-29T04:24:03;99550.78;;;3.17;79.26
80149;BME280;69473;42.426;26.644;2023-12-29T04:26:29;99541.63;;;2.99;79.65
80149;BME280;69473;42.426;26.644;2023-12-29T04:28:55;99543.38;;;3.00;81.19
80149;BME280;69473;42.426;26.644;2023-12-29T04:31:20;99543.59;;;3.07;80.78
80149;BME280;69473;42.426;26.644;2023-12-29T04:33:46;99552.53;;;3.18;80.24
80149;BME280;69473;42.426;26.644;2023-12-29T04:36:12;99554.06;;;3.13;80.06
80149;BME280;69473;42.426;26.644;2023-12-29T04:38:39;99558.94;;;3.07;79.75
80149;BME280;69473;42.426;26.644;2023-12-29T04:41:04;99553.94;;;3.10;80.02
80149;BME280;69473;42.426;26.644;2023-12-29T04:43:30;99548.81;;;3.10;80.25
80149;BME280;69473;42.426;26.644;2023-12-29T04:45:55;99554.69;;;3.07;79.77
80149;BME280;69473;42.426;26.644;2023-12-29T04:48:22;99545.00;;;2.98;79.80
80149;BME280;69473;42.426;26.644;2023-12-29T04:50:47;99545.22;;;3.05;80.54
80149;BME280;69473;42.426;26.644;2023-12-29T04:53:13;99548.59;;;3.04;79.82
80149;BME280;69473;42.426;26.644;2023-12-29T04:55:38;99550.09;;;2.98;80.34
80149;BME280;69473;42.426;26.644;2023-12-29T04:58:04;99552.00;;;3.03;79.97
80149;BME280;69473;42.426;26.644;2023-12-29T05:00:30;99540.63;;;2.96;79.99
80149;BME280;69473;42.426;26.644;2023-12-29T05:02:55;99538.03;;;2.94;80.23
80149;BME280;69473;42.426;26.644;2023-12-29T05:05:21;99540.13;;;2.82;80.71
80149;BME280;69473;42.426;26.644;2023-12-29T05:07:46;99533.56;;;2.89;80.92
80149;BME280;69473;42.426;26.644;2023-12-29T05:10:12;99540.63;;;2.96;80.56
80149;BME280;69473;42.426;26.644;2023-12-29T05:12:37;99534.50;;;2.91;79.96
80149;BME280;69473;42.426;26.644;2023-12-29T05:15:04;99533.03;;;2.97;80.40
80149;BME280;69473;42.426;26.644;2023-12-29T05:17:30;99539.19;;;3.03;80.83
80149;BME280;69473;42.426;26.644;2023-12-29T05:19:55;99540.41;;;3.14;80.67
80149;BME280;69473;42.426;26.644;2023-12-29T05:22:21;99543.69;;;3.10;79.65
80149;BME280;69473;42.426;26.644;2023-12-29T05:24:46;99533.25;;;3.04;80.24
80149;BME280;69473;42.426;26.644;2023-12-29T05:27:12;99531.06;;;2.90;79.38
80149;BME280;69473;42.426;26.644;2023-12-29T05:29:37;99529.06;;;2.83;79.90
80149;BME280;69473;42.426;26.644;2023-12-29T05:32:04;99528.16;;;2.81;80.21
80149;BME280;69473;42.426;26.644;2023-12-29T05:34:30;99523.16;;;2.84;80.60
80149;BME280;69473;42.426;26.644;2023-12-29T05:36:56;99520.50;;;2.81;80.71
80149;BME280;69473;42.426;26.644;2023-12-29T05:39:21;99528.50;;;2.90;80.60
80149;BME280;69473;42.426;26.644;2023-12-29T05:41:47;99534.53;;;2.92;80.66
80149;BME280;69473;42.426;26.644;2023-12-29T05:44:13;99539.53;;;2.89;80.59
80149;BME280;69473;42.426;26.644;2023-12-29T05:46:38;99534.41;;;2.89;80.41
80149;BME280;69473;42.426;26.644;2023-12-29T05:49:04;99536.50;;;2.99;80.86
80149;BME280;69473;42.426;26.644;2023-12-29T05:51:29;99538.41;;;3.05;80.83
80149;BME280;69473;42.426;26.644;2023-12-29T05:53:55;99537.97;;;3.17;81.20
80149;BME280;69473;42.426;26.644;2023-12-29T05:56:20;99535.72;;;3.26;80.49
80149;BME280;69473;42.426;26.644;2023-12-29T05:58:46;99540.97;;;3.29;80.04
80149;BME280;69473;42.426;26.644;2023-12-29T06:01:12;99547.75;;;3.27;80.10
80149;BME280;69473;42.426;26.644;2023-12-29T06:03:37;99539.44;;;3.34;80.54
80149;BME280;69473;42.426;26.644;2023-12-29T06:06:03;99539.88;;;3.46;80.11
80149;BME280;69473;42.426;26.644;2023-12-29T06:08:29;99540.88;;;3.52;79.39
80149;BME280;69473;42.426;26.644;2023-12-29T06:10:54;99551.06;;;3.74;78.98
80149;BME280;69473;42.426;26.644;2023-12-29T06:13:20;99547.69;;;4.02;78.07
80149;BME280;69473;42.426;26.644;2023-12-29T06:15:45;99542.53;;;4.29;77.34
80149;BME280;69473;42.426;26.644;2023-12-29T06:18:11;99541.66;;;4.56;77.92
80149;BME280;69473;42.426;26.644;2023-12-29T06:20:37;99538.97;;;4.81;76.09
80149;BME280;69473;42.426;26.644;2023-12-29T06:23:02;99543.63;;;4.95;75.23
80149;BME280;69473;42.426;26.644;2023-12-29T06:25:28;99543.16;;;5.08;74.27
80149;BME280;69473;42.426;26.644;2023-12-29T06:27:54;99540.44;;;5.33;74.01
80149;BME280;69473;42.426;26.644;2023-12-29T06:30:20;99535.94;;;5.58;73.33
80149;BME280;69473;42.426;26.644;2023-12-29T06:32:46;99534.88;;;5.85;72.05
80149;BME280;69473;42.426;26.644;2023-12-29T06:35:11;99538.63;;;5.96;71.48
80149;BME280;69473;42.426;26.644;2023-12-29T06:37:38;99542.09;;;5.98;71.59
80149;BME280;69473;42.426;26.644;2023-12-29T06:40:07;99554.94;;;6.33;70.83
80149;BME280;69473;42.426;26.644;2023-12-29T06:42:33;99549.09;;;6.40;70.04
80149;BME280;69473;42.426;26.644;2023-12-29T06:44:59;99552.28;;;6.67;69.18
80149;BME280;69473;42.426;26.644;2023-12-29T06:47:26;99545.91;;;6.91;68.43
80149;BME280;69473;42.426;26.644;2023-12-29T06:49:51;99544.91;;;7.27;67.24
80149;BME280;69473;42.426;26.644;2023-12-29T06:52:17;99553.16;;;7.56;65.72
80149;BME280;69473;42.426;26.644;2023-12-29T06:54:42;99557.47;;;7.55;65.98
80149;BME280;69473;42.426;26.644;2023-12-29T06:57:08;99548.75;;;7.49;65.24
80149;BME280;69473;42.426;26.644;2023-12-29T06:59:34;99547.66;;;7.36;65.90
80149;BME280;69473;42.426;26.644;2023-12-29T07:01:59;99553.22;;;7.57;65.59
80149;BME280;69473;42.426;26.644;2023-12-29T07:04:25;99559.47;;;7.72;64.45
80149;BME280;69473;42.426;26.644;2023-12-29T07:06:50;99559.47;;;7.72;64.19
80149;BME280;69473;42.426;26.644;2023-12-29T07:09:16;99556.13;;;7.76;64.92
80149;BME280;69473;42.426;26.644;2023-12-29T07:11:47;99546.28;;;8.06;64.45
80149;BME280;69473;42.426;26.644;2023-12-29T07:14:13;99544.94;;;8.89;60.77
80149;BME280;69473;42.426;26.644;2023-12-29T07:16:38;99541.38;;;9.56;58.58
80149;BME280;69473;42.426;26.644;2023-12-29T07:19:04;99530.09;;;10.56;54.38
80149;BME280;69473;42.426;26.644;2023-12-29T07:21:30;99534.41;;;10.51;55.16
80149;BME280;69473;42.426;26.644;2023-12-29T07:23:55;99545.63;;;10.53;54.95
80149;BME280;69473;42.426;26.644;2023-12-29T07:26:21;99543.59;;;10.12;57.38
80149;BME280;69473;42.426;26.644;2023-12-29T07:28:46;99546.88;;;11.33;52.97
80149;BME280;69473;42.426;26.644;2023-12-29T07:31:12;99544.38;;;12.42;49.36
80149;BME280;69473;42.426;26.644;2023-12-29T07:33:38;99532.78;;;13.43;45.57
80149;BME280;69473;42.426;26.644;2023-12-29T07:36:04;99544.03;;;15.34;42.42
80149;BME280;69473;42.426;26.644;2023-12-29T07:38:29;99537.25;;;15.21;41.09
80149;BME280;69473;42.426;26.644;2023-12-29T07:40:55;99550.22;;;13.21;45.06
80149;BME280;69473;42.426;26.644;2023-12-29T07:43:20;99547.91;;;16.26;40.75
80149;BME280;69473;42.426;26.644;2023-12-29T07:45:47;99540.78;;;19.33;34.53
80149;BME280;69473;42.426;26.644;2023-12-29T07:48:12;99534.47;;;21.47;31.09
80149;BME280;69473;42.426;26.644;2023-12-29T07:50:38;99543.00;;;22.19;30.02
80149;BME280;69473;42.426;26.644;2023-12-29T07:53:03;99540.59;;;22.55;28.68
80149;BME280;69473;42.426;26.644;2023-12-29T07:55:31;99540.75;;;23.50;27.20
80149;BME280;69473;42.426;26.644;2023-12-29T07:57:56;99537.56;;;24.16;26.55
80149;BME280;69473;42.426;26.644;2023-12-29T08:00:22;99541.66;;;24.91;25.52
80149;BME280;69473;42.426;26.644;2023-12-29T08:02:49;99538.44;;;25.35;24.66
80149;BME280;69473;42.426;26.644;2023-12-29T08:05:15;99544.25;;;25.57;24.24
80149;BME280;69473;42.426;26.644;2023-12-29T08:07:42;99547.88;;;24.39;25.45
80149;BME280;69473;42.426;26.644;2023-12-29T08:10:08;99542.94;;;24.14;26.24
80149;BME280;69473;42.426;26.644;2023-12-29T08:12:34;99547.44;;;24.99;25.05
80149;BME280;69473;42.426;26.644;2023-12-29T08:15:01;99542.66;;;25.71;23.86
80149;BME280;69473;42.426;26.644;2023-12-29T08:17:28;99540.34;;;25.65;23.37
80149;BME280;69473;42.426;26.644;2023-12-29T08:19:54;99549.13;;;25.00;24.49
80149;BME280;69473;42.426;26.644;2023-12-29T08:22:20;99544.81;;;24.30;25.31
80149;BME280;69473;42.426;26.644;2023-12-29T08:24:46;99548.81;;;25.71;23.98
80149;BME280;69473;42.426;26.644;2023-12-29T08:27:12;99551.00;;;26.26;22.49
80149;BME280;69473;42.426;26.644;2023-12-29T08:29:39;99548.97;;;27.48;21.92
80149;BME280;69473;42.426;26.644;2023-12-29T08:32:05;99553.66;;;27.85;21.92
80149;BME280;69473;42.426;26.644;2023-12-29T08:34:31;99556.41;;;26.69;21.87
80149;BME280;69473;42.426;26.644;2023-12-29T08:36:57;99553.09;;;28.07;21.35
80149;BME280;69473;42.426;26.644;2023-12-29T08:39:23;99552.03;;;28.50;20.20
80149;BME280;69473;42.426;26.644;2023-12-29T08:41:49;99546.38;;;29.44;19.95
80149;BME280;69473;42.426;26.644;2023-12-29T08:44:15;99534.63;;;29.34;19.97
80149;BME280;69473;42.426;26.644;2023-12-29T08:46:41;99540.44;;;28.76;19.60
80149;BME280;69473;42.426;26.644;2023-12-29T08:49:06;99540.44;;;28.51;20.46
80149;BME280;69473;42.426;26.644;2023-12-29T08:51:32;99538.34;;;28.02;21.18
80149;BME280;69473;42.426;26.644;2023-12-29T08:53:58;99530.81;;;28.61;20.23
80149;BME280;69473;42.426;26.644;2023-12-29T08:56:24;99534.34;;;29.26;20.76
80149;BME280;69473;42.426;26.644;2023-12-29T08:58:49;99526.03;;;29.91;20.00
80149;BME280;69473;42.426;26.644;2023-12-29T09:01:15;99538.09;;;29.23;20.21
80149;BME280;69473;42.426;26.644;2023-12-29T09:03:40;99532.09;;;28.43;21.05
80149;BME280;69473;42.426;26.644;2023-12-29T09:06:06;99529.47;;;28.28;20.63
80149;BME280;69473;42.426;26.644;2023-12-29T09:08:34;99523.22;;;29.68;19.83
80149;BME280;69473;42.426;26.644;2023-12-29T09:11:00;99519.19;;;29.87;19.73
80149;BME280;69473;42.426;26.644;2023-12-29T09:13:25;99521.41;;;30.41;19.18
80149;BME280;69473;42.426;26.644;2023-12-29T09:15:53;99507.84;;;29.59;20.31
80149;BME280;69473;42.426;26.644;2023-12-29T09:18:19;99515.84;;;29.96;19.81
80149;BME280;69473;42.426;26.644;2023-12-29T09:20:45;99512.56;;;29.68;20.17
80149;BME280;69473;42.426;26.644;2023-12-29T09:23:10;99506.44;;;30.03;19.99
80149;BME280;69473;42.426;26.644;2023-12-29T09:25:36;99505.66;;;30.83;19.54
80149;BME280;69473;42.426;26.644;2023-12-29T09:28:02;99503.09;;;31.92;18.75
80149;BME280;69473;42.426;26.644;2023-12-29T09:30:28;99503.44;;;31.56;19.49
80149;BME280;69473;42.426;26.644;2023-12-29T09:32:54;99499.59;;;31.37;19.25
80149;BME280;69473;42.426;26.644;2023-12-29T09:35:19;99499.69;;;30.22;20.38
80149;BME280;69473;42.426;26.644;2023-12-29T09:37:47;99494.63;;;30.06;20.63
80149;BME280;69473;42.426;26.644;2023-12-29T09:40:14;99496.19;;;30.90;19.89
80149;BME280;69473;42.426;26.644;2023-12-29T09:42:43;99498.72;;;30.69;20.29
80149;BME280;69473;42.426;26.644;2023-12-29T09:45:11;99495.00;;;28.65;22.04
80149;BME280;69473;42.426;26.644;2023-12-29T09:47:42;99494.44;;;29.61;21.30
80149;BME280;69473;42.426;26.644;2023-12-29T09:50:12;99496.91;;;30.81;20.60
80149;BME280;69473;42.426;26.644;2023-12-29T09:52:39;99491.06;;;30.76;20.23
80149;BME280;69473;42.426;26.644;2023-12-29T09:55:08;99482.66;;;31.37;20.25
80149;BME280;69473;42.426;26.644;2023-12-29T09:57:36;99472.72;;;31.16;19.87
80149;BME280;69473;42.426;26.644;2023-12-29T10:00:03;99474.72;;;31.58;19.99
80149;BME280;69473;42.426;26.644;2023-12-29T10:02:30;99465.94;;;30.21;21.01
80149;BME280;69473;42.426;26.644;2023-12-29T10:04:56;99458.94;;;25.81;26.33
80149;BME280;69473;42.426;26.644;2023-12-29T10:07:26;99464.97;;;23.49;29.77
80149;BME280;69473;42.426;26.644;2023-12-29T10:09:57;99457.13;;;21.01;33.63
80149;BME280;69473;42.426;26.644;2023-12-29T10:12:28;99464.56;;;19.89;35.47
80149;BME280;69473;42.426;26.644;2023-12-29T10:15:05;99459.50;;;19.56;36.12
80149;BME280;69473;42.426;26.644;2023-12-29T10:23:13;99449.72;;;19.88;36.45
80149;BME280;69473;42.426;26.644;2023-12-29T10:25:42;99440.16;;;22.96;32.24
80149;BME280;69473;42.426;26.644;2023-12-29T10:28:09;99428.63;;;27.43;25.49
80149;BME280;69473;42.426;26.644;2023-12-29T10:30:35;99424.38;;;30.28;21.84
80149;BME280;69473;42.426;26.644;2023-12-29T10:33:01;99428.81;;;30.96;20.74
80149;BME280;69473;42.426;26.644;2023-12-29T10:35:29;99414.91;;;32.52;19.03
80149;BME280;69473;42.426;26.644;2023-12-29T10:38:08;99412.84;;;32.56;18.49
80149;BME280;69473;42.426;26.644;2023-12-29T10:40:38;99419.91;;;32.15;19.11
80149;BME280;69473;42.426;26.644;2023-12-29T10:43:04;99413.53;;;33.58;17.34
80149;BME280;69473;42.426;26.644;2023-12-29T10:45:32;99414.44;;;34.54;16.74
80149;BME280;69473;42.426;26.644;2023-12-29T10:48:00;99404.09;;;33.54;17.84
80149;BME280;69473;42.426;26.644;2023-12-29T10:50:26;99400.53;;;33.83;17.37
80149;BME280;69473;42.426;26.644;2023-12-29T10:55:38;99399.94;;;34.28;17.20
80149;BME280;69473;42.426;26.644;2023-12-29T10:58:05;99394.31;;;34.48;17.47
80149;BME280;69473;42.426;26.644;2023-12-29T11:00:31;99392.97;;;34.35;16.63
80149;BME280;69473;42.426;26.644;2023-12-29T11:02:58;99387.78;;;35.16;16.58
80149;BME280;69473;42.426;26.644;2023-12-29T11:05:26;99381.09;;;35.38;16.16
80149;BME280;69473;42.426;26.644;2023-12-29T11:07:53;99384.97;;;34.62;15.66
80149;BME280;69473;42.426;26.644;2023-12-29T11:10:21;99379.63;;;34.43;16.30
80149;BME280;69473;42.426;26.644;2023-12-29T11:12:48;99374.25;;;35.44;15.56
80149;BME280;69473;42.426;26.644;2023-12-29T11:15:15;99368.25;;;35.32;15.41
80149;BME280;69473;42.426;26.644;2023-12-29T11:17:42;99369.97;;;36.13;14.79
80149;BME280;69473;42.426;26.644;2023-12-29T11:20:18;99365.25;;;36.75;14.86
80149;BME280;69473;42.426;26.644;2023-12-29T11:22:46;99359.69;;;36.42;15.25
80149;BME280;69473;42.426;26.644;2023-12-29T11:25:12;99367.28;;;33.35;16.58
80149;BME280;69473;42.426;26.644;2023-12-29T11:27:38;99362.91;;;35.04;16.29
80149;BME280;69473;42.426;26.644;2023-12-29T11:30:04;99367.34;;;35.77;16.11
80149;BME280;69473;42.426;26.644;2023-12-29T11:33:01;99356.63;;;35.67;15.59
80149;BME280;69473;42.426;26.644;2023-12-29T11:35:37;99341.50;;;35.92;15.93
80149;BME280;69473;42.426;26.644;2023-12-29T11:38:20;99345.00;;;36.11;15.01
80149;BME280;69473;42.426;26.644;2023-12-29T11:43:19;99344.56;;;36.92;14.48
80149;BME280;69473;42.426;26.644;2023-12-29T11:45:45;99352.25;;;36.44;14.94
80149;BME280;69473;42.426;26.644;2023-12-29T11:48:10;99355.91;;;36.27;15.13
80149;BME280;69473;42.426;26.644;2023-12-29T11:50:38;99349.75;;;36.17;14.87
80149;BME280;69473;42.426;26.644;2023-12-29T11:53:08;99353.69;;;35.78;15.05
80149;BME280;69473;42.426;26.644;2023-12-29T11:55:38;99355.31;;;34.35;15.90
80149;BME280;69473;42.426;26.644;2023-12-29T11:58:24;99344.97;;;35.84;15.38
80149;BME280;69473;42.426;26.644;2023-12-29T12:00:51;99344.97;;;36.02;15.23
80149;BME280;69473;42.426;26.644;2023-12-29T12:03:29;99330.59;;;35.76;15.48
80149;BME280;69473;42.426;26.644;2023-12-29T12:05:57;99323.94;;;36.83;14.71
80149;BME280;69473;42.426;26.644;2023-12-29T12:08:34;99327.44;;;34.63;15.75
80149;BME280;69473;42.426;26.644;2023-12-29T12:12:01;99337.09;;;36.09;15.17
80149;BME280;69473;42.426;26.644;2023-12-29T12:14:08;99344.44;;;35.81;15.15
80149;BME280;69473;42.426;26.644;2023-12-29T12:16:50;99346.94;;;35.74;15.35
80149;BME280;69473;42.426;26.644;2023-12-29T12:19:16;99353.16;;;33.82;16.37
80149;BME280;69473;42.426;26.644;2023-12-29T12:21:46;99342.41;;;33.23;17.03
80149;BME280;69473;42.426;26.644;2023-12-29T12:24:14;99341.13;;;31.85;17.94
80149;BME280;69473;42.426;26.644;2023-12-29T12:26:40;99346.34;;;26.71;23.45
80149;BME280;69473;42.426;26.644;2023-12-29T12:29:07;99349.16;;;22.64;28.66
80149;BME280;69473;42.426;26.644;2023-12-29T12:31:33;99353.75;;;20.25;32.87
80149;BME280;69473;42.426;26.644;2023-12-29T12:33:59;99351.53;;;19.36;34.79
80149;BME280;69473;42.426;26.644;2023-12-29T12:36:31;99351.56;;;18.80;35.35
80149;BME280;69473;42.426;26.644;2023-12-29T12:38:58;99354.81;;;18.29;36.44
80149;BME280;69473;42.426;26.644;2023-12-29T12:41:25;99348.75;;;17.94;38.11
80149;BME280;69473;42.426;26.644;2023-12-29T12:46:49;99341.16;;;17.49;38.44
80149;BME280;69473;42.426;26.644;2023-12-29T12:49:17;99347.56;;;17.71;38.03
80149;BME280;69473;42.426;26.644;2023-12-29T12:51:44;99342.56;;;17.62;38.88
80149;BME280;69473;42.426;26.644;2023-12-29T12:54:10;99340.25;;;17.50;38.34
80149;BME280;69473;42.426;26.644;2023-12-29T12:56:37;99324.72;;;17.08;39.87
80149;BME280;69473;42.426;26.644;2023-12-29T12:59:04;99333.31;;;16.74;41.31
80149;BME280;69473;42.426;26.644;2023-12-29T13:01:36;99335.00;;;16.36;41.58
80149;BME280;69473;42.426;26.644;2023-12-29T13:04:03;99338.00;;;16.18;42.28
80149;BME280;69473;42.426;26.644;2023-12-29T13:06:31;99340.00;;;16.05;43.18
80149;BME280;69473;42.426;26.644;2023-12-29T13:08:57;99339.44;;;15.89;43.70
80149;BME280;69473;42.426;26.644;2023-12-29T13:11:23;99350.13;;;15.77;43.80
80149;BME280;69473;42.426;26.644;2023-12-29T13:13:51;99348.44;;;15.73;44.20